sensor_id;sensor_type;location;lat;lon;timestamp;temperature;humidity
6174;DHT22;3120;48.796;9.796;2022-12-24T00:02:23;9.80;99.90
6174;DHT22;3120;48.796;9.796;2022-12-24T00:04:49;9.80;99.90
6174;DHT22;3120;48.796;9.796;2022-12-24T00:07:14;10.00;99.90
6174;DHT22;3120;48.796;9.796;2022-12-24T00:09:40;9.90;99.90
6174;DHT22;3120;48.796;9.796;2022-12-24T00:12:06;10.00;99.90
6174;DHT22;3120;48.796;9.796;2022-12-24T00:14:31;9.90;99.90
6174;DHT22;3120;48.796;9.796;2022-12-24T00:16:57;10.00;99.90
6174;DHT22;3120;48.796;9.796;2022-12-24T00:19:22;10.70;99.90
6174;DHT22;3120;48.796;9.796;2022-12-24T00:21:48;9.90;99.90
6174;DHT22;3120;48.796;9.796;2022-12-24T00:24:13;10.00;99.90
6174;DHT22;3120;48.796;9.796;2022-12-24T00:26:39;10.00;99.90
6174;DHT22;3120;48.796;9.796;2022-12-24T00:29:05;10.00;99.90
6174;DHT22;3120;48.796;9.796;2022-12-24T00:31:31;10.00;99.90
6174;DHT22;3120;48.796;9.796;2022-12-24T00:33:56;10.20;99.90
6174;DHT22;3120;48.796;9.796;2022-12-24T00:36:22;10.10;99.90
6174;DHT22;3120;48.796;9.796;2022-12-24T00:38:48;10.10;99.90
6174;DHT22;3120;48.796;9.796;2022-12-24T00:41:14;10.00;99.90
6174;DHT22;3120;48.796;9.796;2022-12-24T00:44:01;10.10;99.90
6174;DHT22;3120;48.796;9.796;2022-12-24T00:46:29;10.10;99.90
6174;DHT22;3120;48.796;9.796;2022-12-24T00:48:55;10.10;99.90
6174;DHT22;3120;48.796;9.796;2022-12-24T00:51:22;10.10;99.90
6174;DHT22;3120;48.796;9.796;2022-12-24T00:53:48;10.00;99.90
6174;DHT22;3120;48.796;9.796;2022-12-24T00:56:14;10.10;99.90
6174;DHT22;3120;48.796;9.796;2022-12-24T00:58:39;10.10;99.90
6174;DHT22;3120;48.796;9.796;2022-12-24T01:01:06;10.70;99.90
6174;DHT22;3120;48.796;9.796;2022-12-24T01:03:32;10.10;99.90
6174;DHT22;3120;48.796;9.796;2022-12-24T01:06:13;10.20;99.90
6174;DHT22;3120;48.796;9.796;2022-12-24T01:08:39;10.30;99.90
6174;DHT22;3120;48.796;9.796;2022-12-24T01:11:06;10.30;99.90
6174;DHT22;3120;48.796;9.796;2022-12-24T01:13:31;10.30;99.90
6174;DHT22;3120;48.796;9.796;2022-12-24T01:15:57;10.30;99.90
6174;DHT22;3120;48.796;9.796;2022-12-24T01:18:23;11.40;99.90
6174;DHT22;3120;48.796;9.796;2022-12-24T01:21:02;10.30;99.90
6174;DHT22;3120;48.796;9.796;2022-12-24T01:23:31;10.30;99.90
6174;DHT22;3120;48.796;9.796;2022-12-24T01:26:03;10.30;99.90
6174;DHT22;3120;48.796;9.796;2022-12-24T01:28:30;10.20;99.90
6174;DHT22;3120;48.796;9.796;2022-12-24T01:30:55;11.10;99.90
6174;DHT22;3120;48.796;9.796;2022-12-24T01:33:21;10.30;99.90
6174;DHT22;3120;48.796;9.796;2022-12-24T01:35:46;12.00;99.90
6174;DHT22;3120;48.796;9.796;2022-12-24T01:38:12;11.80;99.90
6174;DHT22;3120;48.796;9.796;2022-12-24T01:40:39;10.30;99.90
6174;DHT22;3120;48.796;9.796;2022-12-24T01:43:25;10.40;99.90
6174;DHT22;3120;48.796;9.796;2022-12-24T01:50:58;10.40;99.90
6174;DHT22;3120;48.796;9.796;2022-12-24T01:53:25;11.30;99.90
6174;DHT22;3120;48.796;9.796;2022-12-24T01:55:51;10.40;99.90
6174;DHT22;3120;48.796;9.796;2022-12-24T01:58:20;11.00;99.90
6174;DHT22;3120;48.796;9.796;2022-12-24T02:01:02;10.30;99.90
6174;DHT22;3120;48.796;9.796;2022-12-24T02:03:28;10.20;99.90
6174;DHT22;3120;48.796;9.796;2022-12-24T02:05:57;10.10;99.90
6174;DHT22;3120;48.796;9.796;2022-12-24T02:08:23;10.10;99.90
6174;DHT22;3120;48.796;9.796;2022-12-24T02:11:15;11.20;99.90
6174;DHT22;3120;48.796;9.796;2022-12-24T02:13:45;10.10;99.90
6174;DHT22;3120;48.796;9.796;2022-12-24T02:16:43;11.00;99.90
6174;DHT22;3120;48.796;9.796;2022-12-24T02:25:16;10.00;99.90
6174;DHT22;3120;48.796;9.796;2022-12-24T02:27:57;9.90;99.90
6174;DHT22;3120;48.796;9.796;2022-12-24T02:30:42;9.90;99.90
6174;DHT22;3120;48.796;9.796;2022-12-24T02:36:39;9.90;99.90
6174;DHT22;3120;48.796;9.796;2022-12-24T02:39:04;9.90;99.90
6174;DHT22;3120;48.796;9.796;2022-12-24T02:41:33;9.90;99.90
6174;DHT22;3120;48.796;9.796;2022-12-24T02:44:22;9.80;99.90
6174;DHT22;3120;48.796;9.796;2022-12-24T02:46:49;9.80;99.90
6174;DHT22;3120;48.796;9.796;2022-12-24T02:49:16;9.80;99.90
6174;DHT22;3120;48.796;9.796;2022-12-24T02:51:41;9.80;99.90
6174;DHT22;3120;48.796;9.796;2022-12-24T03:10:36;9.60;99.90
6174;DHT22;3120;48.796;9.796;2022-12-24T03:13:08;9.60;99.90
6174;DHT22;3120;48.796;9.796;2022-12-24T03:15:36;9.60;99.90
6174;DHT22;3120;48.796;9.796;2022-12-24T03:18:05;9.60;99.90
6174;DHT22;3120;48.796;9.796;2022-12-24T03:23:39;9.50;99.90
6174;DHT22;3120;48.796;9.796;2022-12-24T03:26:07;11.30;99.90
6174;DHT22;3120;48.796;9.796;2022-12-24T03:28:36;9.50;99.90
6174;DHT22;3120;48.796;9.796;2022-12-24T03:31:04;9.50;99.90
6174;DHT22;3120;48.796;9.796;2022-12-24T03:33:30;9.40;99.90
6174;DHT22;3120;48.796;9.796;2022-12-24T03:35:55;9.40;99.90
6174;DHT22;3120;48.796;9.796;2022-12-24T03:38:21;9.30;99.90
6174;DHT22;3120;48.796;9.796;2022-12-24T03:40:46;9.30;99.90
6174;DHT22;3120;48.796;9.796;2022-12-24T03:43:12;9.30;99.90
6174;DHT22;3120;48.796;9.796;2022-12-24T03:45:38;9.30;99.90
6174;DHT22;3120;48.796;9.796;2022-12-24T03:48:12;10.30;99.90
6174;DHT22;3120;48.796;9.796;2022-12-24T03:51:02;9.20;99.90
6174;DHT22;3120;48.796;9.796;2022-12-24T03:53:31;9.20;99.90
6174;DHT22;3120;48.796;9.796;2022-12-24T03:55:57;10.80;99.90
6174;DHT22;3120;48.796;9.796;2022-12-24T03:58:23;11.50;99.90
6174;DHT22;3120;48.796;9.796;2022-12-24T04:00:48;9.10;99.90
6174;DHT22;3120;48.796;9.796;2022-12-24T04:03:14;11.20;99.90
6174;DHT22;3120;48.796;9.796;2022-12-24T04:05:39;11.10;99.90
6174;DHT22;3120;48.796;9.796;2022-12-24T04:08:05;9.10;99.90
6174;DHT22;3120;48.796;9.796;2022-12-24T04:10:30;9.10;99.90
6174;DHT22;3120;48.796;9.796;2022-12-24T04:12:56;9.20;99.90
6174;DHT22;3120;48.796;9.796;2022-12-24T04:15:21;9.20;99.90
6174;DHT22;3120;48.796;9.796;2022-12-24T04:17:47;10.90;99.90
6174;DHT22;3120;48.796;9.796;2022-12-24T04:20:12;9.20;99.90
6174;DHT22;3120;48.796;9.796;2022-12-24T04:22:38;9.20;99.90
6174;DHT22;3120;48.796;9.796;2022-12-24T04:25:04;11.00;99.90
6174;DHT22;3120;48.796;9.796;2022-12-24T04:27:30;9.20;99.90
6174;DHT22;3120;48.796;9.796;2022-12-24T04:29:56;9.20;99.90
6174;DHT22;3120;48.796;9.796;2022-12-24T04:32:21;11.40;99.90
6174;DHT22;3120;48.796;9.796;2022-12-24T04:34:47;9.20;99.90
6174;DHT22;3120;48.796;9.796;2022-12-24T04:37:12;9.20;99.90
6174;DHT22;3120;48.796;9.796;2022-12-24T04:39:38;9.20;99.90
6174;DHT22;3120;48.796;9.796;2022-12-24T04:42:03;9.20;99.90
6174;DHT22;3120;48.796;9.796;2022-12-24T04:44:29;9.20;99.90
6174;DHT22;3120;48.796;9.796;2022-12-24T04:46:55;11.30;99.90
6174;DHT22;3120;48.796;9.796;2022-12-24T04:49:20;10.30;99.90
6174;DHT22;3120;48.796;9.796;2022-12-24T04:51:46;9.20;99.90
6174;DHT22;3120;48.796;9.796;2022-12-24T04:54:11;9.60;99.90
6174;DHT22;3120;48.796;9.796;2022-12-24T04:56:37;10.60;99.90
6174;DHT22;3120;48.796;9.796;2022-12-24T04:59:03;9.00;99.90
6174;DHT22;3120;48.796;9.796;2022-12-24T05:01:31;8.90;99.90
6174;DHT22;3120;48.796;9.796;2022-12-24T05:03:57;9.80;99.90
6174;DHT22;3120;48.796;9.796;2022-12-24T05:06:27;9.20;99.90
6174;DHT22;3120;48.796;9.796;2022-12-24T05:08:55;11.10;99.90
6174;DHT22;3120;48.796;9.796;2022-12-24T05:11:24;10.60;99.90
6174;DHT22;3120;48.796;9.796;2022-12-24T05:13:50;11.10;99.90
6174;DHT22;3120;48.796;9.796;2022-12-24T05:16:17;9.20;99.90
6174;DHT22;3120;48.796;9.796;2022-12-24T05:18:43;10.60;99.90
6174;DHT22;3120;48.796;9.796;2022-12-24T05:21:09;10.80;99.90
6174;DHT22;3120;48.796;9.796;2022-12-24T05:23:36;11.00;99.90
6174;DHT22;3120;48.796;9.796;2022-12-24T05:26:36;11.40;99.90
6174;DHT22;3120;48.796;9.796;2022-12-24T05:29:03;9.20;99.90
6174;DHT22;3120;48.796;9.796;2022-12-24T05:31:31;9.20;99.90
6174;DHT22;3120;48.796;9.796;2022-12-24T05:33:58;9.20;99.90
6174;DHT22;3120;48.796;9.796;2022-12-24T05:36:24;9.30;99.90
6174;DHT22;3120;48.796;9.796;2022-12-24T05:38:50;10.40;99.90
6174;DHT22;3120;48.796;9.796;2022-12-24T05:41:16;10.20;99.90
6174;DHT22;3120;48.796;9.796;2022-12-24T05:43:41;10.20;99.90
6174;DHT22;3120;48.796;9.796;2022-12-24T05:46:10;9.20;99.90
6174;DHT22;3120;48.796;9.796;2022-12-24T05:48:36;9.20;99.90
6174;DHT22;3120;48.796;9.796;2022-12-24T05:51:07;9.20;99.90
6174;DHT22;3120;48.796;9.796;2022-12-24T05:53:35;9.20;99.90
6174;DHT22;3120;48.796;9.796;2022-12-24T05:56:09;9.10;99.90
6174;DHT22;3120;48.796;9.796;2022-12-24T05:58:35;9.10;99.90
6174;DHT22;3120;48.796;9.796;2022-12-24T06:01:02;9.00;99.90
6174;DHT22;3120;48.796;9.796;2022-12-24T06:03:29;9.00;99.90
6174;DHT22;3120;48.796;9.796;2022-12-24T06:06:22;9.00;99.90
6174;DHT22;3120;48.796;9.796;2022-12-24T06:08:49;11.00;99.90
6174;DHT22;3120;48.796;9.796;2022-12-24T06:11:23;10.50;99.90
6174;DHT22;3120;48.796;9.796;2022-12-24T06:13:49;10.70;99.90
6174;DHT22;3120;48.796;9.796;2022-12-24T06:16:16;9.00;99.90
6174;DHT22;3120;48.796;9.796;2022-12-24T06:19:17;9.80;99.90
6174;DHT22;3120;48.796;9.796;2022-12-24T06:21:42;8.70;99.90
6174;DHT22;3120;48.796;9.796;2022-12-24T06:24:11;8.70;99.90
6174;DHT22;3120;48.796;9.796;2022-12-24T06:26:40;10.30;99.90
6174;DHT22;3120;48.796;9.796;2022-12-24T06:34:11;8.40;99.90
6174;DHT22;3120;48.796;9.796;2022-12-24T06:36:36;8.50;99.90
6174;DHT22;3120;48.796;9.796;2022-12-24T06:39:02;8.20;99.90
6174;DHT22;3120;48.796;9.796;2022-12-24T06:41:28;10.90;99.90
6174;DHT22;3120;48.796;9.796;2022-12-24T06:43:53;8.20;99.90
6174;DHT22;3120;48.796;9.796;2022-12-24T06:46:19;8.50;99.90
6174;DHT22;3120;48.796;9.796;2022-12-24T06:48:46;9.60;99.90
6174;DHT22;3120;48.796;9.796;2022-12-24T06:51:13;8.10;99.90
6174;DHT22;3120;48.796;9.796;2022-12-24T06:53:39;9.00;99.90
6174;DHT22;3120;48.796;9.796;2022-12-24T06:56:07;8.00;99.90
6174;DHT22;3120;48.796;9.796;2022-12-24T06:58:33;8.00;99.90
6174;DHT22;3120;48.796;9.796;2022-12-24T07:01:01;7.90;99.90
6174;DHT22;3120;48.796;9.796;2022-12-24T07:06:36;7.90;99.90
6174;DHT22;3120;48.796;9.796;2022-12-24T07:09:01;7.90;99.90
6174;DHT22;3120;48.796;9.796;2022-12-24T07:11:27;7.90;99.90
6174;DHT22;3120;48.796;9.796;2022-12-24T07:13:53;7.90;99.90
6174;DHT22;3120;48.796;9.796;2022-12-24T07:16:18;7.80;99.90
6174;DHT22;3120;48.796;9.796;2022-12-24T07:18:44;7.80;99.90
6174;DHT22;3120;48.796;9.796;2022-12-24T07:21:09;7.90;99.90
6174;DHT22;3120;48.796;9.796;2022-12-24T07:23:35;7.70;99.90
6174;DHT22;3120;48.796;9.796;2022-12-24T07:26:03;7.70;99.90
6174;DHT22;3120;48.796;9.796;2022-12-24T07:28:29;7.70;99.90
6174;DHT22;3120;48.796;9.796;2022-12-24T07:30:56;7.70;99.90
6174;DHT22;3120;48.796;9.796;2022-12-24T07:33:22;7.60;99.90
6174;DHT22;3120;48.796;9.796;2022-12-24T07:35:48;7.70;99.90
6174;DHT22;3120;48.796;9.796;2022-12-24T07:38:14;8.60;99.90
6174;DHT22;3120;48.796;9.796;2022-12-24T07:40:39;7.80;99.90
6174;DHT22;3120;48.796;9.796;2022-12-24T07:43:05;7.80;99.90
6174;DHT22;3120;48.796;9.796;2022-12-24T07:45:30;7.80;99.90
6174;DHT22;3120;48.796;9.796;2022-12-24T07:47:56;7.90;99.90
6174;DHT22;3120;48.796;9.796;2022-12-24T07:50:21;7.90;99.90
6174;DHT22;3120;48.796;9.796;2022-12-24T07:52:47;7.90;99.90
6174;DHT22;3120;48.796;9.796;2022-12-24T07:55:12;8.00;99.90
6174;DHT22;3120;48.796;9.796;2022-12-24T07:57:38;9.20;99.90
6174;DHT22;3120;48.796;9.796;2022-12-24T08:00:04;8.00;99.90
6174;DHT22;3120;48.796;9.796;2022-12-24T08:02:30;8.00;99.90
6174;DHT22;3120;48.796;9.796;2022-12-24T08:04:55;8.10;99.90
6174;DHT22;3120;48.796;9.796;2022-12-24T08:07:21;8.10;99.90
6174;DHT22;3120;48.796;9.796;2022-12-24T08:09:46;8.30;99.90
6174;DHT22;3120;48.796;9.796;2022-12-24T08:12:12;8.20;99.90
6174;DHT22;3120;48.796;9.796;2022-12-24T08:14:38;8.30;99.90
6174;DHT22;3120;48.796;9.796;2022-12-24T08:17:04;8.30;99.90
6174;DHT22;3120;48.796;9.796;2022-12-24T08:19:29;10.00;99.90
6174;DHT22;3120;48.796;9.796;2022-12-24T08:21:55;8.40;99.90
6174;DHT22;3120;48.796;9.796;2022-12-24T08:24:21;8.40;99.90
6174;DHT22;3120;48.796;9.796;2022-12-24T08:26:46;10.80;99.90
6174;DHT22;3120;48.796;9.796;2022-12-24T08:29:12;8.50;99.90
6174;DHT22;3120;48.796;9.796;2022-12-24T08:31:37;8.60;99.90
6174;DHT22;3120;48.796;9.796;2022-12-24T08:34:05;8.60;99.90
6174;DHT22;3120;48.796;9.796;2022-12-24T08:36:31;10.30;99.90
6174;DHT22;3120;48.796;9.796;2022-12-24T08:38:57;8.70;99.90
6174;DHT22;3120;48.796;9.796;2022-12-24T08:41:22;8.60;99.90
6174;DHT22;3120;48.796;9.796;2022-12-24T08:43:48;8.70;99.90
6174;DHT22;3120;48.796;9.796;2022-12-24T08:46:13;8.70;99.90
6174;DHT22;3120;48.796;9.796;2022-12-24T08:48:39;8.70;99.90
6174;DHT22;3120;48.796;9.796;2022-12-24T08:51:09;8.80;99.90
6174;DHT22;3120;48.796;9.796;2022-12-24T08:53:35;8.80;99.90
6174;DHT22;3120;48.796;9.796;2022-12-24T08:56:06;8.90;99.90
6174;DHT22;3120;48.796;9.796;2022-12-24T08:58:32;8.90;99.90
6174;DHT22;3120;48.796;9.796;2022-12-24T09:00:58;8.90;99.90
6174;DHT22;3120;48.796;9.796;2022-12-24T09:03:24;9.00;99.90
6174;DHT22;3120;48.796;9.796;2022-12-24T09:05:50;9.00;99.90
6174;DHT22;3120;48.796;9.796;2022-12-24T09:08:15;9.10;99.90
6174;DHT22;3120;48.796;9.796;2022-12-24T09:10:41;9.00;99.90
6174;DHT22;3120;48.796;9.796;2022-12-24T09:13:06;9.00;99.90
6174;DHT22;3120;48.796;9.796;2022-12-24T09:15:32;9.10;99.90
6174;DHT22;3120;48.796;9.796;2022-12-24T09:17:58;10.80;99.90
6174;DHT22;3120;48.796;9.796;2022-12-24T09:20:23;11.00;99.90
6174;DHT22;3120;48.796;9.796;2022-12-24T09:22:49;11.10;99.90
6174;DHT22;3120;48.796;9.796;2022-12-24T09:25:14;9.20;99.90
6174;DHT22;3120;48.796;9.796;2022-12-24T09:27:40;9.20;99.90
6174;DHT22;3120;48.796;9.796;2022-12-24T09:30:06;9.30;99.90
6174;DHT22;3120;48.796;9.796;2022-12-24T09:32:32;9.30;99.90
6174;DHT22;3120;48.796;9.796;2022-12-24T09:34:58;9.40;99.90
6174;DHT22;3120;48.796;9.796;2022-12-24T09:37:24;9.40;99.90
6174;DHT22;3120;48.796;9.796;2022-12-24T09:39:49;9.40;99.90
6174;DHT22;3120;48.796;9.796;2022-12-24T09:42:47;9.50;99.90
6174;DHT22;3120;48.796;9.796;2022-12-24T09:47:58;9.70;99.90
6174;DHT22;3120;48.796;9.796;2022-12-24T09:53:09;9.90;99.90
6174;DHT22;3120;48.796;9.796;2022-12-24T09:55:45;10.60;99.90
6174;DHT22;3120;48.796;9.796;2022-12-24T09:58:36;10.10;99.90
6174;DHT22;3120;48.796;9.796;2022-12-24T10:01:03;10.10;99.90
6174;DHT22;3120;48.796;9.796;2022-12-24T10:03:29;9.90;99.90
6174;DHT22;3120;48.796;9.796;2022-12-24T10:06:18;9.90;99.90
6174;DHT22;3120;48.796;9.796;2022-12-24T10:09:02;9.90;99.90
6174;DHT22;3120;48.796;9.796;2022-12-24T10:11:50;9.90;99.90
6174;DHT22;3120;48.796;9.796;2022-12-24T10:14:33;9.90;99.90
6174;DHT22;3120;48.796;9.796;2022-12-24T10:17:29;10.90;99.90
6174;DHT22;3120;48.796;9.796;2022-12-24T10:23:10;10.20;99.90
6174;DHT22;3120;48.796;9.796;2022-12-24T10:26:01;10.30;99.90
6174;DHT22;3120;48.796;9.796;2022-12-24T10:31:49;10.30;99.90
6174;DHT22;3120;48.796;9.796;2022-12-24T10:34:22;10.30;99.90
6174;DHT22;3120;48.796;9.796;2022-12-24T10:36:48;10.30;99.90
6174;DHT22;3120;48.796;9.796;2022-12-24T10:39:19;10.40;99.90
6174;DHT22;3120;48.796;9.796;2022-12-24T10:41:48;10.40;99.90
6174;DHT22;3120;48.796;9.796;2022-12-24T10:44:17;10.50;99.90
6174;DHT22;3120;48.796;9.796;2022-12-24T10:46:45;10.60;99.90
6174;DHT22;3120;48.796;9.796;2022-12-24T10:49:14;12.20;99.90
6174;DHT22;3120;48.796;9.796;2022-12-24T10:51:59;10.80;99.90
6174;DHT22;3120;48.796;9.796;2022-12-24T10:54:28;10.90;99.90
6174;DHT22;3120;48.796;9.796;2022-12-24T10:57:00;11.80;99.90
6174;DHT22;3120;48.796;9.796;2022-12-24T10:59:50;11.90;99.90
6174;DHT22;3120;48.796;9.796;2022-12-24T11:02:35;11.40;99.90
6174;DHT22;3120;48.796;9.796;2022-12-24T11:05:04;11.60;99.90
6174;DHT22;3120;48.796;9.796;2022-12-24T11:07:31;11.70;99.90
6174;DHT22;3120;48.796;9.796;2022-12-24T11:10:03;11.80;99.90
6174;DHT22;3120;48.796;9.796;2022-12-24T11:12:36;11.60;99.90
6174;DHT22;3120;48.796;9.796;2022-12-24T11:15:23;11.60;97.20
6174;DHT22;3120;48.796;9.796;2022-12-24T11:18:00;11.60;79.80
6174;DHT22;3120;48.796;9.796;2022-12-24T11:20:30;11.60;72.80
6174;DHT22;3120;48.796;9.796;2022-12-24T11:22:57;11.60;45.40
6174;DHT22;3120;48.796;9.796;2022-12-24T11:25:30;12.90;76.20
6174;DHT22;3120;48.796;9.796;2022-12-24T11:28:11;11.60;79.10
6174;DHT22;3120;48.796;9.796;2022-12-24T11:30:37;11.50;65.10
6174;DHT22;3120;48.796;9.796;2022-12-24T11:35:30;11.50;56.30
6174;DHT22;3120;48.796;9.796;2022-12-24T11:40:50;13.50;30.40
6174;DHT22;3120;48.796;9.796;2022-12-24T11:43:21;11.40;35.10
6174;DHT22;3120;48.796;9.796;2022-12-24T11:45:54;11.40;76.50
6174;DHT22;3120;48.796;9.796;2022-12-24T11:48:27;11.20;83.00
6174;DHT22;3120;48.796;9.796;2022-12-24T11:51:01;12.90;78.20
6174;DHT22;3120;48.796;9.796;2022-12-24T11:53:43;11.10;66.50
6174;DHT22;3120;48.796;9.796;2022-12-24T11:56:16;11.20;35.30
6174;DHT22;3120;48.796;9.796;2022-12-24T11:58:48;11.90;1.00
6174;DHT22;3120;48.796;9.796;2022-12-24T12:03:54;11.20;47.50
6174;DHT22;3120;48.796;9.796;2022-12-24T12:06:30;11.20;27.70
6174;DHT22;3120;48.796;9.796;2022-12-24T12:11:51;11.40;9.60
6174;DHT22;3120;48.796;9.796;2022-12-24T12:14:22;11.50;1.00
6174;DHT22;3120;48.796;9.796;2022-12-24T12:20:13;11.50;1.00
6174;DHT22;3120;48.796;9.796;2022-12-24T12:31:34;11.50;1.00
6174;DHT22;3120;48.796;9.796;2022-12-24T12:40:18;11.50;1.00
6174;DHT22;3120;48.796;9.796;2022-12-24T12:43:11;11.50;1.00
6174;DHT22;3120;48.796;9.796;2022-12-24T12:45:57;11.50;1.00
6174;DHT22;3120;48.796;9.796;2022-12-24T12:51:57;11.50;1.00
6174;DHT22;3120;48.796;9.796;2022-12-24T12:54:35;11.50;1.00
6174;DHT22;3120;48.796;9.796;2022-12-24T12:57:06;11.50;1.00
6174;DHT22;3120;48.796;9.796;2022-12-24T13:02:38;11.40;37.40
6174;DHT22;3120;48.796;9.796;2022-12-24T13:08:25;11.50;29.70
6174;DHT22;3120;48.796;9.796;2022-12-24T13:19:21;11.60;29.10
6174;DHT22;3120;48.796;9.796;2022-12-24T13:21:51;11.60;43.50
6174;DHT22;3120;48.796;9.796;2022-12-24T13:24:21;11.50;86.50
6174;DHT22;3120;48.796;9.796;2022-12-24T13:30:44;11.40;99.90
6174;DHT22;3120;48.796;9.796;2022-12-24T13:32:53;11.50;99.90
6174;DHT22;3120;48.796;9.796;2022-12-24T13:37:45;12.00;99.90
6174;DHT22;3120;48.796;9.796;2022-12-24T13:50:50;11.40;99.90
6174;DHT22;3120;48.796;9.796;2022-12-24T13:53:40;11.30;99.90
6174;DHT22;3120;48.796;9.796;2022-12-24T13:58:44;11.10;99.90
6174;DHT22;3120;48.796;9.796;2022-12-24T14:01:15;11.10;99.90
6174;DHT22;3120;48.796;9.796;2022-12-24T14:03:50;11.10;99.90
6174;DHT22;3120;48.796;9.796;2022-12-24T14:06:30;11.20;99.90
6174;DHT22;3120;48.796;9.796;2022-12-24T14:09:08;11.10;99.90
6174;DHT22;3120;48.796;9.796;2022-12-24T14:14:40;11.10;99.90
6174;DHT22;3120;48.796;9.796;2022-12-24T14:19:55;10.90;99.90
6174;DHT22;3120;48.796;9.796;2022-12-24T14:22:33;10.80;99.90
6174;DHT22;3120;48.796;9.796;2022-12-24T14:25:03;10.80;99.90
6174;DHT22;3120;48.796;9.796;2022-12-24T14:30:04;10.70;99.90
6174;DHT22;3120;48.796;9.796;2022-12-24T14:32:35;10.50;99.90
6174;DHT22;3120;48.796;9.796;2022-12-24T14:35:14;10.50;99.90
6174;DHT22;3120;48.796;9.796;2022-12-24T14:41:23;10.40;99.90
6174;DHT22;3120;48.796;9.796;2022-12-24T14:49:58;10.20;99.90
6174;DHT22;3120;48.796;9.796;2022-12-24T14:52:51;10.10;99.90
6174;DHT22;3120;48.796;9.796;2022-12-24T15:00:43;9.80;99.90
6174;DHT22;3120;48.796;9.796;2022-12-24T15:03:17;9.80;99.90
6174;DHT22;3120;48.796;9.796;2022-12-24T15:05:44;9.80;99.90
6174;DHT22;3120;48.796;9.796;2022-12-24T15:08:18;9.70;99.90
6174;DHT22;3120;48.796;9.796;2022-12-24T15:10:53;9.60;99.90
6174;DHT22;3120;48.796;9.796;2022-12-24T15:13:31;9.50;99.90
6174;DHT22;3120;48.796;9.796;2022-12-24T15:15:59;10.70;99.90
6174;DHT22;3120;48.796;9.796;2022-12-24T15:18:28;9.50;99.90
6174;DHT22;3120;48.796;9.796;2022-12-24T15:20:58;9.40;99.90
6174;DHT22;3120;48.796;9.796;2022-12-24T15:23:30;9.30;99.90
6174;DHT22;3120;48.796;9.796;2022-12-24T15:26:28;9.20;99.90
6174;DHT22;3120;48.796;9.796;2022-12-24T15:28:56;9.00;99.90
6174;DHT22;3120;48.796;9.796;2022-12-24T15:31:23;8.90;99.90
6174;DHT22;3120;48.796;9.796;2022-12-24T15:33:51;11.00;99.90
6174;DHT22;3120;48.796;9.796;2022-12-24T15:36:25;8.70;99.90
6174;DHT22;3120;48.796;9.796;2022-12-24T15:38:53;8.70;99.90
6174;DHT22;3120;48.796;9.796;2022-12-24T15:41:22;8.60;99.90
6174;DHT22;3120;48.796;9.796;2022-12-24T15:43:49;9.40;99.90
6174;DHT22;3120;48.796;9.796;2022-12-24T15:46:33;8.50;99.90
6174;DHT22;3120;48.796;9.796;2022-12-24T15:49:01;8.40;99.90
6174;DHT22;3120;48.796;9.796;2022-12-24T15:51:35;8.40;99.90
6174;DHT22;3120;48.796;9.796;2022-12-24T15:54:07;8.40;99.90
6174;DHT22;3120;48.796;9.796;2022-12-24T15:56:39;8.40;99.90
6174;DHT22;3120;48.796;9.796;2022-12-24T15:59:27;8.30;99.90
6174;DHT22;3120;48.796;9.796;2022-12-24T16:01:53;8.40;99.90
6174;DHT22;3120;48.796;9.796;2022-12-24T16:04:27;8.40;99.90
6174;DHT22;3120;48.796;9.796;2022-12-24T16:06:56;8.30;99.90
6174;DHT22;3120;48.796;9.796;2022-12-24T16:12:22;8.30;99.90
6174;DHT22;3120;48.796;9.796;2022-12-24T16:14:57;8.30;99.90
6174;DHT22;3120;48.796;9.796;2022-12-24T16:17:27;8.30;99.90
6174;DHT22;3120;48.796;9.796;2022-12-24T16:19:57;8.30;99.90
6174;DHT22;3120;48.796;9.796;2022-12-24T16:22:25;8.30;99.90
6174;DHT22;3120;48.796;9.796;2022-12-24T16:24:58;8.30;99.90
6174;DHT22;3120;48.796;9.796;2022-12-24T16:27:24;8.30;99.90
6174;DHT22;3120;48.796;9.796;2022-12-24T16:29:49;8.30;99.90
6174;DHT22;3120;48.796;9.796;2022-12-24T16:32:32;8.30;99.90
6174;DHT22;3120;48.796;9.796;2022-12-24T16:35:00;8.40;99.90
6174;DHT22;3120;48.796;9.796;2022-12-24T16:37:56;8.40;99.90
6174;DHT22;3120;48.796;9.796;2022-12-24T16:40:22;8.40;99.90
6174;DHT22;3120;48.796;9.796;2022-12-24T16:42:47;8.40;99.90
6174;DHT22;3120;48.796;9.796;2022-12-24T16:45:34;8.40;99.90
6174;DHT22;3120;48.796;9.796;2022-12-24T16:48:00;8.50;99.90
6174;DHT22;3120;48.796;9.796;2022-12-24T16:50:27;8.50;99.90
6174;DHT22;3120;48.796;9.796;2022-12-24T16:52:52;8.40;99.90
6174;DHT22;3120;48.796;9.796;2022-12-24T16:55:18;8.50;99.90
6174;DHT22;3120;48.796;9.796;2022-12-24T16:57:44;8.40;99.90
6174;DHT22;3120;48.796;9.796;2022-12-24T17:00:18;8.50;99.90
6174;DHT22;3120;48.796;9.796;2022-12-24T17:02:46;8.40;99.90
6174;DHT22;3120;48.796;9.796;2022-12-24T17:05:12;8.40;99.90
6174;DHT22;3120;48.796;9.796;2022-12-24T17:07:38;9.20;99.90
6174;DHT22;3120;48.796;9.796;2022-12-24T17:10:05;11.10;99.90
6174;DHT22;3120;48.796;9.796;2022-12-24T17:12:32;8.40;99.90
6174;DHT22;3120;48.796;9.796;2022-12-24T17:14:59;8.40;99.90
6174;DHT22;3120;48.796;9.796;2022-12-24T17:17:27;9.80;99.90
6174;DHT22;3120;48.796;9.796;2022-12-24T17:19:54;9.70;99.90
6174;DHT22;3120;48.796;9.796;2022-12-24T17:22:20;8.40;99.90
6174;DHT22;3120;48.796;9.796;2022-12-24T17:24:46;10.10;99.90
6174;DHT22;3120;48.796;9.796;2022-12-24T17:27:14;10.20;99.90
6174;DHT22;3120;48.796;9.796;2022-12-24T17:29:41;10.50;99.90
6174;DHT22;3120;48.796;9.796;2022-12-24T17:32:07;8.50;99.90
6174;DHT22;3120;48.796;9.796;2022-12-24T17:34:32;8.50;99.90
6174;DHT22;3120;48.796;9.796;2022-12-24T17:36:58;8.50;99.90
6174;DHT22;3120;48.796;9.796;2022-12-24T17:39:24;10.40;99.90
6174;DHT22;3120;48.796;9.796;2022-12-24T17:41:50;8.40;99.90
6174;DHT22;3120;48.796;9.796;2022-12-24T17:44:16;9.90;99.90
6174;DHT22;3120;48.796;9.796;2022-12-24T17:46:41;8.50;99.90
6174;DHT22;3120;48.796;9.796;2022-12-24T17:49:08;8.50;99.90
6174;DHT22;3120;48.796;9.796;2022-12-24T17:51:34;10.00;99.90
6174;DHT22;3120;48.796;9.796;2022-12-24T17:54:01;10.60;99.90
6174;DHT22;3120;48.796;9.796;2022-12-24T17:56:30;10.00;99.90
6174;DHT22;3120;48.796;9.796;2022-12-24T17:58:56;8.50;99.90
6174;DHT22;3120;48.796;9.796;2022-12-24T18:01:24;10.60;99.90
6174;DHT22;3120;48.796;9.796;2022-12-24T18:03:51;9.80;99.90
6174;DHT22;3120;48.796;9.796;2022-12-24T18:06:19;8.30;99.90
6174;DHT22;3120;48.796;9.796;2022-12-24T18:08:46;10.10;99.90
6174;DHT22;3120;48.796;9.796;2022-12-24T18:11:23;10.30;99.90
6174;DHT22;3120;48.796;9.796;2022-12-24T18:13:51;8.40;99.90
6174;DHT22;3120;48.796;9.796;2022-12-24T18:16:20;8.50;99.90
6174;DHT22;3120;48.796;9.796;2022-12-24T18:18:48;10.20;99.90
6174;DHT22;3120;48.796;9.796;2022-12-24T18:21:14;8.60;99.90
6174;DHT22;3120;48.796;9.796;2022-12-24T18:23:42;8.60;99.90
6174;DHT22;3120;48.796;9.796;2022-12-24T18:26:09;8.50;99.90
6174;DHT22;3120;48.796;9.796;2022-12-24T18:28:35;8.50;99.90
6174;DHT22;3120;48.796;9.796;2022-12-24T18:31:03;9.60;99.90
6174;DHT22;3120;48.796;9.796;2022-12-24T18:33:31;8.50;99.90
6174;DHT22;3120;48.796;9.796;2022-12-24T18:35:57;8.50;99.90
6174;DHT22;3120;48.796;9.796;2022-12-24T18:38:56;10.60;99.90
6174;DHT22;3120;48.796;9.796;2022-12-24T18:41:28;8.40;99.90
6174;DHT22;3120;48.796;9.796;2022-12-24T18:43:54;9.40;99.90
6174;DHT22;3120;48.796;9.796;2022-12-24T18:46:22;8.30;99.90
6174;DHT22;3120;48.796;9.796;2022-12-24T18:48:50;8.40;99.90
6174;DHT22;3120;48.796;9.796;2022-12-24T18:51:17;8.40;99.90
6174;DHT22;3120;48.796;9.796;2022-12-24T18:53:43;8.40;99.90
6174;DHT22;3120;48.796;9.796;2022-12-24T18:56:14;8.30;99.90